YDG weather

Digby / Annapolis Regional Airport
Digby, Nova Scotia, Canada

Public forecast

Using degrees Celsius for public forecast. Weather courtesy of forecast.io.

METAR (pilot weather report)

Closest report is Yarmouth Airport, 45.1 nm (83.5 km) SSW. Retrieved 2019/04/26 03:00 UTC (18 minutes ago):

CYQI 260300Z 29006KT 15SM FEW038 02/01 A3002 RMK SC1 SC TR SLP169

TAF (pilot weather forecast)

Forecast is more than 12 hours old.

Closest forecast is Yarmouth Airport, 45.1 nm (83.5 km) SSW. Retrieved 2019/04/25 00:42 UTC (1 day ago):

TAF TAF CYQI 252338Z 2600/2612 31008KT P6SM SCT025 TEMPO 2600/2612 BKN025 BECMG 2600/2602 VRB03KT BECMG 2610/2612 11006KT RMK NXT FCST BY 260600Z